Time;durP1;ratioP1;P1;durP2;ratioP2;P2;SDS_P1;SDS_P2;PMS_P1;PMS_P2;Temp;Humidity;BMP_temperature;BMP_pressure;BME280_temperature;BME280_humidity;BME280_pressure;Samples;Min_cycle;Max_cycle;Signal;HPM_P1;HPM_P2
2021/12/26 00:01:53;;;;;;;9.53;8.73;;;-0.70;99.90;;;-0.85;64.13;100705.88;5097229;28;20043;-68
2021/12/26 00:04:22;;;;;;;12.20;8.97;;;-0.60;99.90;;;-0.88;64.60;100711.81;5115525;28;20074;-69
2021/12/26 00:06:51;;;;;;;10.03;9.03;;;-0.70;99.90;;;-0.88;64.33;100701.44;5115826;28;20064;-70
2021/12/26 00:09:19;;;;;;;9.10;8.40;;;-0.70;99.90;;;-0.98;64.21;100700.22;5115434;28;20468;-69
2021/12/26 00:11:50;;;;;;;9.77;8.83;;;-0.70;99.90;;;-0.87;64.32;100703.19;5096856;28;20554;-70
2021/12/26 00:14:19;;;;;;;10.43;8.47;;;-0.80;99.90;;;-0.88;64.32;100714.41;5114723;28;20063;-68
2021/12/26 00:16:48;;;;;;;10.20;9.10;;;-0.80;99.90;;;-0.72;64.21;100713.28;5114861;28;20477;-68
2021/12/26 00:19:16;;;;;;;12.33;8.87;;;-0.70;99.90;;;-0.89;63.91;100699.66;5114878;28;20407;-72
2021/12/26 00:21:45;;;;;;;9.80;8.93;;;-0.70;99.90;;;-0.80;64.49;100694.84;5115092;28;20046;-67
2021/12/26 00:24:13;;;;;;;10.57;9.00;;;-0.70;99.90;;;-0.88;63.84;100695.34;5115244;28;20043;-73
2021/12/26 00:26:42;;;;;;;9.00;8.13;;;-0.70;99.90;;;-1.07;63.62;100641.88;5114555;28;20044;-73
2021/12/26 00:29:12;;;;;;;9.10;8.30;;;-0.50;99.90;;;-0.60;63.45;100711.16;5114932;28;20048;-68
2021/12/26 00:31:41;;;;;;;8.87;7.93;;;-0.50;99.90;;;-0.75;63.46;100702.78;5114825;28;20121;-68
2021/12/26 00:34:10;;;;;;;11.13;9.40;;;-0.50;99.90;;;-0.92;63.51;100694.34;5114421;28;20043;-69
2021/12/26 00:36:39;;;;;;;11.20;8.80;;;-0.60;99.90;;;-1.33;64.28;100684.97;5114657;28;20103;-69
2021/12/26 00:39:09;;;;;;;10.83;8.60;;;-1.00;99.90;;;-1.42;64.51;100670.75;5114295;28;20031;-69
2021/12/26 00:41:39;;;;;;;10.30;8.90;;;-1.10;99.90;;;-1.23;63.92;100692.28;5114404;28;20128;-71
2021/12/26 00:44:08;;;;;;;9.60;8.57;;;-1.00;99.90;;;-1.38;64.89;100690.81;5114697;28;20439;-69
2021/12/26 00:46:41;;;;;;;11.77;9.10;;;-1.20;99.90;;;-1.26;64.54;100691.28;5114099;28;20146;-69
2021/12/26 00:49:09;;;;;;;10.43;9.35;;;-1.10;99.90;;;-1.68;64.63;100659.34;5114170;28;20092;-69
2021/12/26 00:51:38;;;;;;;9.10;8.20;;;-1.30;99.90;;;-1.49;64.93;100694.69;5095878;28;20587;-68
2021/12/26 00:54:06;;;;;;;9.53;8.47;;;-1.30;99.90;;;-1.47;64.78;100686.13;5114056;28;20043;-68
2021/12/26 00:56:34;;;;;;;9.37;8.33;;;-1.20;99.90;;;-1.67;64.87;100691.31;5095664;28;20075;-68
2021/12/26 00:59:03;;;;;;;14.03;8.83;;;-1.40;99.90;;;-1.65;65.28;100688.00;5114274;28;20044;-68
2021/12/26 01:01:34;;;;;;;9.50;8.60;;;-1.40;99.90;;;-1.38;65.03;100670.06;5095844;28;20501;-69
2021/12/26 01:04:05;;;;;;;9.47;8.47;;;-1.20;99.90;;;-1.33;64.67;100691.84;5114221;28;20047;-69
2021/12/26 01:06:34;;;;;;;9.85;8.88;;;-1.20;99.90;;;-1.17;64.31;100683.88;5095782;28;20446;-68
2021/12/26 01:09:03;;;;;;;10.23;8.53;;;-1.10;99.90;;;-1.08;63.79;100685.09;5095590;28;20074;-69
2021/12/26 01:11:36;;;;;;;11.90;9.20;;;-0.90;99.90;;;-1.15;63.68;100671.84;5095744;28;20145;-69
2021/12/26 01:14:13;;;;;;;8.87;7.60;;;-0.90;99.90;;;-1.07;63.56;100678.22;5095857;28;20081;-69
2021/12/26 01:17:13;;;;;;;10.73;8.83;;;-0.90;99.90;;;-1.16;63.76;100683.91;5085975;28;20064;-68
2021/12/26 01:20:12;;;;;;;9.50;8.50;;;-0.90;99.90;;;-1.24;63.79;100679.28;5113515;28;20506;-68
2021/12/26 01:22:41;;;;;;;10.77;8.80;;;-1.00;99.90;;;-0.98;63.37;100682.03;5095619;28;20039;-69
2021/12/26 01:25:14;;;;;;;11.40;8.80;;;-0.90;99.90;;;-1.27;63.67;100685.22;5095812;28;20067;-68
2021/12/26 01:27:43;;;;;;;10.03;9.00;;;-1.00;99.90;;;-1.29;63.74;100655.72;5095158;28;20044;-68
2021/12/26 01:30:13;;;;;;;9.23;8.43;;;-1.00;99.90;;;-1.16;64.01;100683.06;5095463;28;20092;-69
2021/12/26 01:32:46;;;;;;;9.93;9.07;;;-1.00;99.90;;;-1.26;63.48;100676.59;5095438;28;20421;-70
2021/12/26 01:35:36;;;;;;;9.40;8.37;;;-1.00;99.90;;;-1.47;64.39;100678.34;5112769;28;20054;-69
2021/12/26 01:38:23;;;;;;;9.00;8.10;;;-1.20;99.90;;;-1.47;64.18;100677.47;5113179;28;20516;-69
2021/12/26 01:41:30;;;;;;;10.70;8.70;;;-1.20;99.90;;;-1.80;64.64;100683.88;5098281;28;20400;-69
2021/12/26 01:44:04;;;;;;;13.10;8.80;;;-1.40;99.90;;;-1.72;65.39;100687.69;5113289;28;20043;-68
2021/12/26 01:46:41;;;;;;;10.67;8.93;;;-1.60;99.90;;;-1.78;65.34;100684.84;5094778;28;20100;-69
2021/12/26 01:49:14;;;;;;;10.95;9.90;;;-1.60;99.90;;;-1.87;64.95;100681.03;5113304;28;20062;-69
2021/12/26 01:51:49;;;;;;;10.17;9.07;;;-1.60;99.90;;;-1.83;65.80;100677.75;5094804;28;20092;-69
2021/12/26 01:54:30;;;;;;;10.60;9.30;;;-1.60;99.90;;;-1.83;65.77;100669.06;5113452;28;20067;-69
2021/12/26 01:57:00;;;;;;;9.07;8.17;;;-1.60;99.90;;;-1.86;65.17;100622.31;5094768;28;20493;-69
2021/12/26 01:59:29;;;;;;;9.70;8.80;;;-1.50;99.90;;;-1.49;65.50;100666.16;5113334;28;20059;-69
2021/12/26 02:02:14;;;;;;;10.57;8.53;;;-1.40;99.90;;;-1.55;65.21;100672.00;5094394;28;20051;-70
2021/12/26 02:04:43;;;;;;;13.02;8.88;;;-1.40;99.90;;;-1.62;64.76;100671.66;5094811;28;20048;-71
2021/12/26 02:07:14;;;;;;;9.87;8.47;;;-1.40;99.90;;;-1.74;65.04;100659.06;5112796;28;20112;-69
2021/12/26 02:09:45;;;;;;;12.17;8.70;;;-1.50;99.90;;;-1.36;64.50;100669.31;5094581;28;20054;-69
2021/12/26 02:12:19;;;;;;;8.63;7.70;;;-1.30;99.90;;;-1.30;64.55;100674.72;5094295;28;20146;-69
2021/12/26 02:14:47;;;;;;;9.47;8.53;;;-1.20;99.90;;;-1.45;64.23;100663.72;5094418;28;20047;-69
2021/12/26 02:17:48;;;;;;;;;;;-1.20;99.90;;;-1.36;64.18;100652.84;5067650;28;20131;-69
2021/12/26 02:20:29;;;;;;;8.47;7.67;;;-1.10;99.90;;;-1.31;64.20;100659.09;5093815;28;19942;-69
2021/12/26 02:23:02;;;;;;;9.83;8.83;;;-1.10;99.90;;;-1.48;64.48;100661.03;5094120;28;20090;-69
2021/12/26 02:28:18;;;;;;;9.80;8.83;;;-1.40;99.90;;;-1.36;64.36;100660.63;5093266;28;20051;-69
2021/12/26 02:30:50;;;;;;;8.90;8.10;;;-1.30;99.90;;;-1.41;64.24;100650.06;5094461;28;20052;-69
2021/12/26 02:33:19;;;;;;;9.57;8.57;;;-1.20;99.90;;;-1.42;64.39;100643.13;5094325;28;20446;-69
2021/12/26 02:35:51;;;;;;;11.90;8.60;;;-1.20;99.90;;;-1.47;64.05;100648.97;5094171;28;20047;-69
2021/12/26 02:38:21;;;;;;;9.20;8.30;;;-1.30;99.90;;;-1.48;64.72;100650.66;5094051;28;20070;-71
2021/12/26 02:40:52;;;;;;;9.83;8.83;;;-1.40;99.90;;;-1.55;64.14;100638.28;5093772;28;20142;-69
2021/12/26 02:43:24;;;;;;;9.73;8.73;;;-1.30;99.90;;;-1.75;63.89;100610.66;5094141;28;20079;-70
2021/12/26 02:45:54;;;;;;;14.73;9.27;;;-1.40;99.90;;;-1.46;64.67;100633.44;5112529;28;20373;-69
2021/12/26 02:48:23;;;;;;;10.50;9.32;;;-1.40;99.90;;;-1.55;64.29;100629.63;5112587;28;20043;-69
2021/12/26 02:50:56;;;;;;;9.27;8.37;;;-1.40;99.90;;;-1.85;64.46;100618.91;5094131;28;20412;-70
2021/12/26 02:53:29;;;;;;;9.50;8.40;;;-1.50;99.90;;;-1.98;65.36;100627.00;5093957;28;20051;-69
2021/12/26 02:55:59;;;;;;;9.45;8.50;;;-1.70;99.90;;;-1.82;65.08;100598.31;5093625;28;20063;-70
2021/12/26 02:58:29;;;;;;;10.37;9.17;;;-1.60;99.90;;;-2.05;65.11;100625.84;5093916;28;20043;-69
2021/12/26 03:01:03;;;;;;;9.30;8.40;;;-1.70;99.90;;;-1.78;65.50;100605.34;5094196;28;20097;-69
2021/12/26 03:03:32;;;;;;;11.20;9.57;;;-1.70;99.90;;;-1.84;64.78;100611.19;5112230;28;20039;-69
2021/12/26 03:06:08;;;;;;;9.87;8.87;;;-1.60;99.90;;;-1.94;65.41;100613.34;5112100;28;20044;-69
2021/12/26 03:08:36;;;;;;;10.23;9.23;;;-1.70;99.90;;;-1.94;65.25;100608.16;5093365;28;20051;-69
2021/12/26 03:11:05;;;;;;;11.33;9.13;;;-1.70;99.90;;;-2.01;65.66;100599.25;5093651;28;20115;-69
2021/12/26 03:13:33;;;;;;;9.57;8.27;;;-1.80;99.90;;;-2.33;66.03;100565.97;5111705;28;20047;-69
2021/12/26 03:16:02;;;;;;;10.23;9.10;;;-1.90;99.90;;;-1.88;65.53;100608.41;5111739;28;20047;-69
2021/12/26 03:18:30;;;;;;;8.83;7.97;;;-1.80;99.90;;;-1.89;65.25;100612.72;5093580;28;20475;-69
2021/12/26 03:20:59;;;;;;;8.60;7.80;;;-1.70;99.90;;;-1.98;65.32;100601.09;5111649;28;20445;-70
2021/12/26 03:23:29;;;;;;;12.53;8.90;;;-1.70;99.90;;;-2.00;65.99;100603.63;5111899;28;20104;-69
2021/12/26 03:26:00;;;;;;;9.83;8.40;;;-1.70;99.90;;;-1.99;65.62;100623.50;5111634;28;20086;-69
2021/12/26 03:28:30;;;;;;;11.50;9.23;;;-1.70;99.90;;;-1.90;65.68;100600.56;5093228;28;20048;-69
2021/12/26 03:31:01;;;;;;;10.07;9.07;;;-1.70;99.90;;;-2.01;65.79;100595.75;5095028;28;20109;-69
2021/12/26 03:33:32;;;;;;;10.43;8.33;;;-1.80;99.90;;;-2.02;66.12;100602.69;5097528;28;20043;-69
2021/12/26 03:36:01;;;;;;;10.63;8.47;;;-1.80;99.90;;;-1.87;66.00;100595.53;5115713;28;20043;-69
2021/12/26 03:38:33;;;;;;;9.23;8.40;;;-1.70;99.90;;;-1.56;65.81;100599.31;5097731;28;20055;-71
2021/12/26 03:41:10;;;;;;;11.00;9.80;;;-1.50;99.90;;;-1.92;66.73;100598.75;5097656;28;20401;-70
2021/12/26 03:43:42;;;;;;;9.57;8.00;;;-1.70;99.90;;;-1.72;65.86;100592.63;5097353;28;20088;-70
2021/12/26 03:46:11;;;;;;;9.93;8.80;;;-1.60;99.90;;;-1.71;65.51;100583.16;5097239;28;20047;-70
2021/12/26 03:48:41;;;;;;;8.93;8.13;;;-1.50;99.90;;;-1.51;65.05;100592.63;5097133;28;20051;-70
2021/12/26 03:51:09;;;;;;;10.93;8.47;;;-1.40;99.90;;;-1.46;65.32;100591.97;5097226;28;20059;-69
2021/12/26 03:53:39;;;;;;;10.03;9.10;;;-1.30;99.90;;;-1.89;65.72;100566.06;5096861;28;20071;-69
2021/12/26 03:56:09;;;;;;;9.80;9.00;;;-1.50;99.90;;;-1.73;65.69;100593.47;5096974;28;20104;-69
2021/12/26 03:58:42;;;;;;;9.67;8.47;;;-1.50;99.90;;;-1.73;65.82;100593.47;5097096;28;20499;-69
2021/12/26 04:01:10;;;;;;;10.55;9.48;;;-1.50;99.90;;;-1.74;65.90;100545.03;5097037;28;20553;-69
2021/12/26 04:03:39;;;;;;;9.93;9.03;;;-1.40;99.90;;;-1.52;65.97;100583.06;5096935;28;20036;-69
2021/12/26 04:06:08;;;;;;;9.60;8.63;;;-1.30;99.90;;;-1.25;65.15;100585.00;5096981;28;20524;-70
2021/12/26 04:08:44;;;;;;;9.90;9.00;;;-1.10;99.90;;;-1.19;64.54;100594.72;5097019;28;20054;-70
2021/12/26 04:11:13;;;;;;;11.15;8.75;;;-1.00;99.90;;;-1.39;64.56;100587.88;5096945;28;20155;-71
2021/12/26 04:13:41;;;;;;;9.23;8.33;;;-1.10;99.90;;;-1.74;65.57;100586.50;5096982;28;20043;-69
2021/12/26 04:16:10;;;;;;;9.73;8.83;;;-1.40;99.90;;;-1.61;65.63;100575.81;5097258;28;20094;-69
2021/12/26 04:18:39;;;;;;;9.30;8.40;;;-1.40;99.90;;;-1.75;66.21;100579.56;5097127;28;20078;-69
2021/12/26 04:21:09;;;;;;;9.40;8.50;;;-1.50;99.90;;;-2.07;66.67;100567.06;5096637;28;20044;-69
2021/12/26 04:23:47;;;;;;;9.70;8.77;;;-1.80;99.90;;;-2.14;67.68;100580.56;5096753;28;20055;-69
2021/12/26 04:26:15;;;;;;;12.77;9.15;;;-1.90;99.90;;;-2.09;67.72;100581.66;5115037;28;20043;-69
2021/12/26 04:28:44;;;;;;;9.37;8.50;;;-1.90;99.90;;;-1.80;67.29;100581.06;5096197;28;20043;-69
2021/12/26 04:31:13;;;;;;;9.40;8.50;;;-1.70;99.90;;;-1.93;67.10;100569.34;5096405;28;20476;-69
2021/12/26 04:33:42;;;;;;;12.03;9.70;;;-1.70;99.90;;;-2.27;67.22;100491.13;5096508;28;20082;-69
2021/12/26 04:36:10;;;;;;;10.03;9.10;;;-1.60;99.90;;;-1.81;66.65;100579.31;5096321;28;20461;-69
2021/12/26 04:38:38;;;;;;;10.33;8.83;;;-1.60;99.90;;;-1.67;67.01;100578.16;5114683;28;20044;-69
2021/12/26 04:41:10;;;;;;;10.60;9.33;;;-1.50;99.90;;;-1.91;66.89;100538.31;5096157;28;20143;-69
2021/12/26 04:43:45;;;;;;;10.47;9.47;;;-1.60;99.90;;;-1.89;66.92;100540.16;5114066;28;20382;-69
2021/12/26 04:46:20;;;;;;;9.67;8.63;;;-1.50;99.90;;;-1.68;67.04;100568.59;5096173;28;20048;-70
2021/12/26 04:48:56;;;;;;;9.63;8.73;;;-1.50;99.90;;;-1.97;67.62;100566.56;5096028;28;20074;-69
2021/12/26 04:51:25;;;;;;;9.30;8.37;;;-1.70;99.90;;;-2.16;68.42;100564.06;5096039;28;20088;-69
2021/12/26 04:53:57;;;;;;;10.73;8.60;;;-1.90;99.90;;;-2.25;68.54;100548.16;5096014;28;20120;-69
2021/12/26 04:56:26;;;;;;;10.27;9.20;;;-2.00;99.90;;;-1.88;68.28;100556.59;5095662;28;20078;-69
2021/12/26 04:58:55;;;;;;;10.32;9.23;;;-1.80;99.90;;;-1.80;68.05;100544.78;5095854;28;20051;-69
2021/12/26 05:01:23;;;;;;;10.40;9.40;;;-1.70;99.90;;;-1.95;68.06;100559.75;5113946;28;20127;-69
2021/12/26 05:03:53;;;;;;;9.93;9.00;;;-1.70;99.90;;;-2.05;68.19;100540.38;5095767;28;20130;-69
2021/12/26 05:06:24;;;;;;;12.63;8.97;;;-1.80;99.90;;;-2.09;68.83;100559.19;5114068;28;20039;-69
2021/12/26 05:08:52;;;;;;;9.73;8.73;;;-1.90;99.90;;;-2.16;69.84;100557.19;5095583;28;20044;-70
2021/12/26 05:11:21;;;;;;;10.70;8.77;;;-2.00;99.90;;;-2.07;69.41;100567.91;5113964;28;20127;-69
2021/12/26 05:13:51;;;;;;;10.23;9.10;;;-1.90;99.90;;;-2.09;69.31;100566.97;5113795;28;20055;-69
2021/12/26 05:16:20;;;;;;;11.10;8.67;;;-1.90;99.90;;;-2.26;69.60;100559.31;5095547;28;20093;-69
2021/12/26 05:18:49;;;;;;;9.83;8.17;;;-2.00;99.90;;;-2.06;69.54;100566.22;5113503;28;20519;-69
2021/12/26 05:21:17;;;;;;;10.03;9.03;;;-1.90;99.90;;;-2.16;69.78;100559.78;5095121;28;20047;-71
2021/12/26 05:23:46;;;;;;;10.17;9.17;;;-1.90;99.90;;;-2.11;69.08;100565.16;5095461;28;20111;-69
2021/12/26 05:26:14;;;;;;;9.33;8.53;;;-1.80;99.90;;;-1.98;69.26;100554.47;5095339;28;20053;-70
2021/12/26 05:28:43;;;;;;;10.50;8.30;;;-1.80;99.90;;;-2.00;69.10;100544.03;5113281;28;20039;-70
2021/12/26 05:31:14;;;;;;;10.90;9.82;;;-1.80;99.90;;;-2.01;69.36;100539.66;5095252;28;20070;-71
2021/12/26 05:33:44;;;;;;;9.87;8.87;;;-1.80;99.90;;;-2.04;69.44;100542.16;5095283;28;20051;-70
2021/12/26 05:36:12;;;;;;;13.43;9.80;;;-1.80;99.90;;;-2.01;69.67;100543.94;5113620;28;20078;-69
2021/12/26 05:38:43;;;;;;;10.23;9.20;;;-1.80;99.90;;;-2.02;69.42;100534.44;5095182;28;20062;-69
2021/12/26 05:41:12;;;;;;;11.37;9.70;;;-1.80;99.90;;;-2.01;69.04;100534.47;5095180;28;20040;-69
2021/12/26 05:43:51;;;;;;;10.87;9.03;;;-1.80;99.90;;;-1.98;69.12;100513.91;5095183;28;20109;-70
2021/12/26 05:46:20;;;;;;;11.23;9.17;;;-1.80;99.90;;;-1.73;68.57;100515.72;5095106;28;20052;-70
2021/12/26 05:48:50;;;;;;;11.77;9.60;;;-1.60;99.90;;;-1.92;69.01;100523.63;5094752;28;20051;-69
2021/12/26 05:51:30;;;;;;;9.77;8.87;;;-1.70;99.90;;;-2.11;69.65;100523.72;5094730;28;20085;-70
2021/12/26 05:54:21;;;;;;;10.40;9.40;;;-1.90;99.90;;;-1.99;69.16;100534.53;5100860;28;20051;-69
2021/12/26 05:56:50;;;;;;;13.73;9.87;;;-1.80;99.90;;;-1.93;69.37;100524.41;5095397;28;20066;-70
2021/12/26 05:59:18;;;;;;;11.07;9.97;;;-1.80;99.90;;;-2.07;69.85;100523.88;5095307;28;20092;-70
2021/12/26 06:01:50;;;;;;;10.65;9.23;;;-1.90;99.90;;;-2.00;69.35;100515.53;5112974;28;20050;-69
2021/12/26 06:04:19;;;;;;;10.57;9.68;;;-1.80;99.90;;;-2.08;69.72;100526.41;5094815;28;20063;-69
2021/12/26 06:06:48;;;;;;;9.77;8.73;;;-1.90;99.90;;;-2.14;69.93;100523.56;5094694;28;20059;-69
2021/12/26 06:09:18;;;;;;;;;;;-1.90;99.90;;;-2.08;69.68;100511.75;5095057;28;20044;-69
2021/12/26 06:11:48;;;;;;;10.27;8.45;;;-1.80;99.90;;;-2.13;69.78;100518.44;5111566;28;19920;-71
2021/12/26 06:14:16;;;;;;;10.17;9.27;;;-1.90;99.90;;;-2.20;69.75;100506.09;5094779;28;20419;-71
2021/12/26 06:16:45;;;;;;;10.80;9.90;;;-1.90;99.90;;;-2.10;69.96;100523.75;5094651;28;20181;-69
2021/12/26 06:19:34;;;;;;;10.43;9.50;;;-2.00;99.90;;;-2.37;70.72;100512.28;5112708;28;20157;-69
2021/12/26 06:22:26;;;;;;;13.20;9.70;;;-2.10;99.90;;;-2.17;70.51;100524.31;5112096;28;20050;-69
2021/12/26 06:25:23;;;;;;;9.77;8.83;;;-2.00;99.90;;;-2.31;70.69;100522.00;5112092;28;20396;-69
2021/12/26 06:28:14;;;;;;;10.00;9.00;;;-2.10;99.90;;;-2.07;70.62;100525.59;5094181;28;20058;-69
2021/12/26 06:31:01;;;;;;;10.97;9.93;;;-1.90;99.90;;;-2.25;70.33;100517.97;5112236;28;20042;-69
2021/12/26 06:33:52;;;;;;;10.03;9.10;;;-2.00;99.90;;;-2.14;70.94;100519.28;5112010;28;20052;-69
2021/12/26 06:36:42;;;;;;;13.17;9.40;;;-2.00;99.90;;;-1.96;70.15;100527.78;5112559;28;20051;-69
2021/12/26 06:39:29;;;;;;;11.17;9.57;;;-1.80;99.90;;;-1.78;69.89;100519.81;5112260;28;20082;-69
2021/12/26 06:42:16;;;;;;;9.90;9.00;;;-1.70;99.90;;;-1.93;69.55;100525.31;5112101;28;20070;-69
2021/12/26 06:45:03;;;;;;;9.70;8.77;;;-1.70;99.90;;;-2.11;69.87;100523.72;5112155;28;20046;-69
2021/12/26 06:48:02;;;;;;;9.47;8.57;;;-1.80;99.90;;;-1.89;69.92;100508.16;5088169;28;20051;-69
2021/12/26 06:50:30;;;;;;;9.77;8.83;;;-1.70;99.90;;;-1.77;69.64;100516.44;5093909;28;20084;-69
2021/12/26 06:53:01;;;;;;;10.30;9.27;;;-1.60;99.90;;;-1.68;69.58;100508.13;5094008;28;20370;-69
2021/12/26 06:55:29;;;;;;;10.10;9.10;;;-1.50;99.90;;;-1.76;69.30;100500.03;5111999;28;20092;-70
2021/12/26 06:57:58;;;;;;;9.77;8.70;;;-1.50;99.90;;;-1.63;69.20;100488.44;5112258;28;20074;-69
2021/12/26 07:00:26;;;;;;;10.60;9.60;;;-1.50;99.90;;;-1.70;68.97;100497.69;5111892;28;20043;-69
2021/12/26 07:02:56;;;;;;;10.27;9.03;;;-1.50;99.90;;;-1.78;69.19;100486.13;5093844;28;20067;-70
2021/12/26 07:05:25;;;;;;;10.00;8.93;;;-1.50;99.90;;;-1.67;69.23;100495.22;5111606;28;20512;-70
2021/12/26 07:08:04;;;;;;;10.77;9.77;;;-1.50;99.90;;;-1.59;69.01;100496.41;5094200;28;20402;-69
2021/12/26 07:10:35;;;;;;;12.40;9.33;;;-1.40;99.90;;;-1.92;69.44;100500.28;5094285;28;20047;-69
2021/12/26 07:13:04;;;;;;;10.07;9.07;;;-1.60;99.90;;;-1.90;69.43;100496.06;5094128;28;20043;-69
2021/12/26 07:15:38;;;;;;;9.93;8.90;;;-1.70;99.90;;;-1.75;69.45;100498.34;5093909;28;20063;-69
2021/12/26 07:18:07;;;;;;;10.57;9.47;;;-1.60;99.90;;;-1.83;69.44;100496.34;5111964;28;20401;-70
2021/12/26 07:20:39;;;;;;;10.63;9.37;;;-1.60;99.90;;;-1.99;69.79;100490.50;5093347;28;20036;-69
2021/12/26 07:23:24;;;;;;;10.17;9.27;;;-1.70;99.90;;;-1.97;69.71;100496.63;5112033;28;20055;-70
2021/12/26 07:25:58;;;;;;;11.40;10.10;;;-1.70;99.90;;;-2.20;70.39;100507.78;5093664;28;20044;-70
2021/12/26 07:28:27;;;;;;;10.23;9.17;;;-1.90;99.90;;;-2.28;70.57;100497.13;5111760;28;20416;-70
2021/12/26 07:30:58;;;;;;;10.03;9.03;;;-2.00;99.90;;;-2.15;70.85;100504.56;5111894;28;20477;-69
2021/12/26 07:33:27;;;;;;;10.57;9.60;;;-2.00;99.90;;;-2.21;70.68;100493.09;5093291;28;20048;-69
2021/12/26 07:36:01;;;;;;;12.67;9.40;;;-2.00;99.90;;;-1.94;70.55;100509.72;5093490;28;20047;-69
2021/12/26 07:38:38;;;;;;;11.30;10.10;;;-1.80;99.90;;;-2.02;70.30;100509.41;5093583;28;20052;-69
2021/12/26 07:41:25;;;;;;;11.17;10.07;;;-1.80;99.90;;;-2.12;70.98;100504.69;5093361;28;20085;-69
2021/12/26 07:43:54;;;;;;;10.13;9.10;;;-1.90;99.90;;;-2.07;70.87;100510.06;5093624;28;20048;-70
2021/12/26 07:46:41;;;;;;;10.73;9.73;;;-1.90;99.90;;;-1.76;70.18;100515.59;5111587;28;20067;-70
2021/12/26 07:49:21;;;;;;;10.97;9.47;;;-1.70;99.90;;;-2.12;69.84;100524.53;5093380;28;20120;-69
2021/12/26 07:52:13;;;;;;;11.20;10.10;;;-1.80;99.90;;;-2.13;70.26;100521.03;5111745;28;20466;-70
2021/12/26 07:55:03;;;;;;;11.43;10.00;;;-1.90;99.90;;;-2.19;70.74;100531.16;5111316;28;20062;-69
2021/12/26 07:58:07;;;;;;;11.07;10.07;;;-1.90;99.90;;;-2.06;70.96;100529.94;5111224;28;20131;-70
2021/12/26 08:00:54;;;;;;;10.20;9.30;;;-2.00;99.90;;;-2.03;70.56;100524.88;5111619;28;20405;-69
2021/12/26 08:03:41;;;;;;;11.77;10.53;;;-1.90;99.90;;;-2.04;70.71;100517.94;5111324;28;20527;-69
2021/12/26 08:06:30;;;;;;;10.40;9.40;;;-1.80;99.90;;;-2.21;70.95;100496.56;5111287;28;20154;-69
2021/12/26 08:08:59;;;;;;;10.37;9.27;;;-1.90;99.90;;;-2.10;71.08;100522.88;5111233;28;20048;-69
2021/12/26 08:11:31;;;;;;;11.03;9.90;;;-1.90;99.90;;;-2.27;71.39;100519.63;5092688;28;20142;-67
2021/12/26 08:14:00;;;;;;;11.88;10.57;;;-2.00;99.90;;;-2.14;72.19;100521.88;5092981;28;20097;-70
2021/12/26 08:16:28;;;;;;;11.67;10.50;;;-2.00;99.90;;;-2.20;71.98;100528.50;5111042;28;20043;-70
2021/12/26 08:18:57;;;;;;;9.60;8.70;;;-2.10;99.90;;;-2.14;71.54;100534.81;5113883;28;20075;-70
2021/12/26 08:21:26;;;;;;;10.30;9.40;;;-2.00;99.90;;;-1.64;71.33;100529.03;5114563;28;20071;-70
2021/12/26 08:23:54;;;;;;;10.47;9.43;;;-1.60;99.90;;;-2.19;70.28;100427.56;5114647;28;20047;-70
2021/12/26 08:26:23;;;;;;;10.00;8.87;;;-1.40;99.90;;;-1.57;69.63;100530.16;5114426;28;20075;-69
2021/12/26 08:28:53;;;;;;;11.30;9.73;;;-1.40;99.90;;;-1.53;69.60;100530.31;5115047;28;20051;-70
2021/12/26 08:31:22;;;;;;;10.85;9.85;;;-1.40;99.90;;;-2.06;69.15;100403.91;5114900;28;20047;-66
2021/12/26 08:33:51;;;;;;;12.38;10.32;;;-1.20;99.90;;;-1.21;69.20;100545.38;5114621;28;20048;-67
2021/12/26 08:36:20;;;;;;;10.43;9.27;;;-1.10;99.90;;;-1.35;68.44;100538.78;5114892;28;20039;-69
2021/12/26 08:38:49;;;;;;;10.88;9.48;;;-1.10;99.90;;;-1.66;68.94;100538.44;5114527;28;20139;-68
2021/12/26 08:41:17;;;;;;;11.00;9.33;;;-1.40;99.90;;;-1.40;69.79;100529.97;5114947;28;20373;-69
2021/12/26 08:43:47;;;;;;;10.47;9.47;;;-1.30;99.90;;;-1.53;69.09;100535.50;5114703;28;20458;-69
2021/12/26 08:46:17;;;;;;;13.68;10.05;;;-1.30;99.90;;;-1.71;69.79;100524.44;5114349;28;20047;-67
2021/12/26 08:48:47;;;;;;;11.48;10.20;;;-1.50;99.90;;;-1.68;70.37;100529.72;5114637;28;20121;-66
2021/12/26 08:51:15;;;;;;;11.00;9.90;;;-1.50;99.90;;;-1.76;70.21;100523.38;5114412;28;20541;-68
2021/12/26 08:53:44;;;;;;;13.00;10.27;;;-1.60;99.90;;;-1.84;70.67;100522.22;5114189;28;20092;-69
2021/12/26 08:56:12;;;;;;;11.40;10.27;;;-1.60;99.90;;;-2.38;70.59;100386.25;5114263;28;20108;-67
2021/12/26 08:58:41;;;;;;;10.30;8.83;;;-1.50;99.90;;;-1.38;70.14;100522.25;5114398;28;20049;-69
2021/12/26 09:01:18;;;;;;;12.43;10.33;;;-1.30;99.90;;;-1.42;69.82;100515.16;5096321;28;20052;-68
2021/12/26 09:03:46;;;;;;;11.20;10.20;;;-1.30;99.90;;;-1.11;69.75;100526.72;5114361;28;20044;-68
2021/12/26 09:06:15;;;;;;;11.73;10.50;;;-1.00;99.90;;;-1.35;70.26;100528.41;5114020;28;20076;-69
2021/12/26 09:08:43;;;;;;;10.20;9.20;;;-1.20;99.90;;;-1.54;69.95;100475.81;5113811;28;20035;-70
2021/12/26 09:11:12;;;;;;;11.07;10.00;;;-1.10;99.90;;;-1.42;69.75;100513.47;5114259;28;20051;-72
2021/12/26 09:13:40;;;;;;;11.77;10.43;;;-1.20;99.90;;;-1.08;70.03;100516.44;5113851;28;20048;-71
2021/12/26 09:16:09;;;;;;;11.43;10.33;;;-1.00;99.90;;;-0.68;69.20;100523.94;5114012;28;20180;-78
2021/12/26 09:18:41;;;;;;;11.67;10.30;;;-0.70;99.90;;;-0.62;68.58;100520.66;5113745;28;20051;-72
2021/12/26 09:21:09;;;;;;;10.90;9.90;;;-0.50;99.90;;;-0.74;68.55;100518.53;5095684;28;20051;-71
2021/12/26 09:23:38;;;;;;;10.17;9.03;;;-0.50;99.90;;;-0.69;68.24;100508.28;5113766;28;20488;-70
2021/12/26 09:26:06;;;;;;;11.20;10.13;;;-0.40;99.90;;;-0.81;68.54;100515.69;5095308;28;20159;-71
2021/12/26 09:28:38;;;;;;;11.77;10.53;;;-0.50;99.90;;;-0.84;68.57;100515.56;5113422;28;20031;-68
2021/12/26 09:31:07;;;;;;;12.33;9.47;;;-0.60;99.90;;;-0.64;68.66;100509.34;5113845;28;20044;-72
2021/12/26 09:33:35;;;;;;;11.87;9.40;;;-0.60;99.90;;;-0.76;69.04;100511.50;5113301;28;20126;-71
2021/12/26 09:36:06;;;;;;;9.93;8.87;;;-0.60;99.90;;;-0.73;69.21;100509.00;5113291;28;20053;-72
2021/12/26 09:38:34;;;;;;;13.53;10.27;;;-0.60;99.90;;;-1.16;70.18;100499.72;5113750;28;20039;-71
2021/12/26 09:41:03;;;;;;;12.90;10.17;;;-0.90;99.90;;;-0.96;70.78;100506.50;5113461;28;20063;-70
2021/12/26 09:43:32;;;;;;;11.17;10.07;;;-0.80;99.90;;;-0.77;70.51;100517.56;5113378;28;20071;-75
2021/12/26 09:46:00;;;;;;;13.23;10.20;;;-0.70;99.90;;;-0.98;70.98;100502.97;5113033;28;20224;-75
2021/12/26 09:48:29;;;;;;;11.27;10.10;;;-0.70;99.90;;;-1.09;72.08;100506.91;5112947;28;20066;-70
2021/12/26 09:50:58;;;;;;;13.93;10.80;;;-0.90;99.90;;;-1.13;72.20;100497.25;5112804;28;20385;-72
2021/12/26 09:53:28;;;;;;;11.70;9.70;;;-0.90;99.90;;;-1.15;72.30;100504.09;5113160;28;20044;-74
2021/12/26 09:55:56;;;;;;;11.02;9.60;;;-0.90;99.90;;;-1.01;72.47;100497.66;5112814;28;20139;-75
2021/12/26 09:58:25;;;;;;;13.50;10.43;;;-0.90;99.90;;;-1.01;72.60;100497.66;5112844;28;20044;-73
2021/12/26 10:00:53;;;;;;;13.63;10.87;;;-0.80;99.90;;;-0.96;72.32;100488.34;5094732;28;20081;-72
2021/12/26 10:03:25;;;;;;;12.17;10.90;;;-0.80;99.90;;;-1.01;72.70;100492.47;5113400;28;20035;-71
2021/12/26 10:06:18;;;;;;;12.40;10.67;;;-0.80;99.90;;;-0.85;72.92;100493.03;5113009;28;20070;-71
2021/12/26 10:08:57;;;;;;;12.97;10.00;;;-0.80;99.90;;;-0.96;72.86;100493.53;5093845;28;20421;-76
2021/12/26 10:11:28;;;;;;;13.07;11.00;;;-0.80;99.90;;;-0.96;72.92;100505.63;5113038;28;20043;-74
2021/12/26 10:13:59;;;;;;;12.40;10.60;;;-0.80;99.90;;;-1.03;73.41;100457.81;5112751;28;20039;-76
2021/12/26 10:16:31;;;;;;;13.90;11.90;;;-0.70;99.90;;;-1.33;73.66;100368.56;5112779;28;20127;-75
2021/12/26 10:19:01;;;;;;;12.83;10.70;;;-0.60;99.90;;;-0.62;73.33;100474.78;5112916;28;20047;-75
2021/12/26 10:21:34;;;;;;;12.85;11.15;;;-0.50;99.90;;;-0.75;74.22;100470.03;5112615;28;20127;-73
2021/12/26 10:24:12;;;;;;;12.67;10.80;;;-0.60;99.90;;;-0.39;73.31;100466.06;5112976;28;20055;-73
2021/12/26 10:26:45;;;;;;;12.13;10.27;;;-0.30;99.90;;;-0.43;73.39;100458.13;5094585;28;20055;-74
2021/12/26 10:29:27;;;;;;;14.70;11.20;;;-0.30;99.90;;;-0.34;73.32;100471.41;5112641;28;20067;-73
2021/12/26 10:32:06;;;;;;;12.47;11.13;;;-0.30;99.90;;;-0.44;73.53;100470.22;5112531;28;20458;-71
2021/12/26 10:34:40;;;;;;;14.93;11.37;;;-0.30;99.90;;;-0.46;74.15;100460.59;5112762;28;20515;-70